Port Saunders, Canada
Current Conditions -  °F | °C
As of 3:00 PM on Thursday 29 Jan 2015 (Local Time) from CWDH Reporting Station
Overcast Overcast  
Wind Chill: 15°   Ceiling: 1200
Heat Index: 22°   Visibility: 9mi
Dew Point: 14°   Wind: 5mph
Humidity: 72%   Direction: 280°W
Pressure: 30.05"   Gusts: NA
Location:  50.65°N, 57.27°W
Report Text: CWDH 291800Z AUTO 28004KT 9SM OVC012 M06/M10 A3005 RMK SLP179 T10571100 11040 21064 60002 70012 WSI/SWOB
Loading
Personal Weather Stations






























Interactive Weather Map New forecast layout! Learn more

10-Day Weather Forecast

Advertisements
Track Severe Weather on mobile